Time;durP1;ratioP1;P1;durP2;ratioP2;P2;SDS_P1;SDS_P2;PMS_P1;PMS_P2;Temp;Humidity;BMP_temperature;BMP_pressure;BME280_temperature;BME280_humidity;BME280_pressure;Samples;Min_cycle;Max_cycle;Signal;HPM_P1;HPM_P2
2022/07/02 00:01:51;;;;;;;1.93;1.70;;;-21.50;99.90;;;;;;5075395;28;20213;-74
2022/07/02 00:04:20;;;;;;;3.03;2.20;;;-13.90;99.90;;;;;;5075539;28;20202;-74
2022/07/02 00:06:48;;;;;;;2.20;2.00;;;-17.10;99.90;;;;;;5075163;28;20225;-72
2022/07/02 00:09:14;;;;;;;8.00;1.97;;;-19.00;99.90;;;;;;5075170;28;20170;-73
2022/07/02 00:11:41;;;;;;;3.37;2.10;;;-17.30;99.90;;;;;;5075195;28;20172;-71
2022/07/02 00:14:08;;;;;;;6.40;1.50;;;-13.20;99.90;;;;;;5075369;28;20206;-73
2022/07/02 00:16:35;;;;;;;2.17;2.07;;;-16.50;99.90;;;;;;5075050;28;20546;-71
2022/07/02 00:19:02;;;;;;;20.33;3.33;;;-15.00;99.90;;;;;;5075336;28;20216;-74
2022/07/02 00:21:28;;;;;;;7.10;3.27;;;-18.10;99.90;;;;;;5075174;28;20620;-73
2022/07/02 00:23:53;;;;;;;3.13;1.63;;;-19.20;99.90;;;;;;5074987;28;20179;-73
2022/07/02 00:26:33;;;;;;;1.83;1.73;;;-17.30;99.90;;;;;;5075161;28;20167;-73
2022/07/02 00:29:21;;;;;;;2.83;2.13;;;-21.20;99.90;;;;;;5075252;28;20243;-74
2022/07/02 00:31:49;;;;;;;2.23;1.90;;;-18.30;99.90;;;;;;5075024;28;20569;-73
2022/07/02 00:34:16;;;;;;;4.13;1.97;;;-15.80;99.90;;;;;;5074231;28;20179;-74
2022/07/02 00:36:43;;;;;;;4.03;2.03;;;-15.60;99.90;;;;;;5074478;28;20207;-73
2022/07/02 00:39:09;;;;;;;3.17;2.03;;;-14.20;99.90;;;;;;5075108;28;20250;-74
2022/07/02 00:41:35;;;;;;;5.77;2.20;;;-17.20;99.90;;;;;;5074982;28;20511;-71
2022/07/02 00:44:03;;;;;;;4.03;1.93;;;-16.10;99.90;;;;;;5075491;28;20445;-74
2022/07/02 00:46:30;;;;;;;4.97;2.83;;;-21.20;99.90;;;;;;5078570;28;20179;-74
2022/07/02 00:48:56;;;;;;;2.73;1.90;;;-19.50;99.90;;;;;;5078625;28;20199;-73
2022/07/02 00:51:22;;;;;;;4.23;2.30;;;-25.10;99.90;;;;;;5078107;28;20567;-72
2022/07/02 00:53:48;;;;;;;2.23;2.03;;;-18.00;99.90;;;;;;5078485;28;20247;-71
2022/07/02 00:56:13;;;;;;;2.03;1.50;;;-18.40;99.90;;;;;;5078437;28;20164;-74
2022/07/02 00:58:40;;;;;;;2.50;1.47;;;-24.40;99.90;;;;;;5078394;28;20200;-73
2022/07/02 01:01:05;;;;;;;3.13;2.40;;;-18.10;99.90;;;;;;5078346;28;20546;-74
2022/07/02 01:03:34;;;;;;;1.67;1.60;;;-18.50;99.90;;;;;;5078362;28;20195;-74
2022/07/02 01:06:00;;;;;;;2.60;1.40;;;-21.00;99.90;;;;;;5077814;28;20180;-73
2022/07/02 01:11:14;;;;;;;2.00;1.90;;;-24.50;99.90;;;;;;5078129;28;20174;-74
2022/07/02 01:13:40;;;;;;;1.70;1.60;;;-22.50;99.90;;;;;;5078179;28;20549;-72
2022/07/02 01:16:06;;;;;;;2.30;1.87;;;-25.40;99.90;;;;;;5078154;28;20587;-69
2022/07/02 01:18:32;;;;;;;2.60;2.40;;;-22.90;99.90;;;;;;5078022;28;20199;-72
2022/07/02 01:20:57;;;;;;;3.80;2.53;;;-21.80;99.90;;;;;;5077807;28;20208;-71
2022/07/02 01:23:23;;;;;;;1.73;1.63;;;-23.50;99.90;;;;;;5078011;28;20179;-71
2022/07/02 01:25:53;;;;;;;5.17;2.17;;;-27.10;99.90;;;;;;5076658;28;20167;-69
2022/07/02 01:28:20;;;;;;;3.93;1.83;;;-21.10;99.90;;;;;;5076865;28;20190;-72
2022/07/02 01:30:47;;;;;;;5.30;2.33;;;-26.90;99.90;;;;;;5076688;28;20172;-68
2022/07/02 01:33:13;;;;;;;6.00;2.27;;;-26.00;99.90;;;;;;5077906;28;20182;-69
2022/07/02 01:35:39;;;;;;;3.73;2.20;;;-26.10;99.90;;;;;;5077688;28;20257;-71
2022/07/02 01:38:05;;;;;;;2.33;1.40;;;-30.00;99.90;;;;;;5077502;28;20219;-69
2022/07/02 01:40:31;;;;;;;1.73;1.63;;;-27.00;99.90;;;;;;5077730;28;20172;-74
2022/07/02 01:42:56;;;;;;;2.03;1.80;;;-22.80;99.90;;;;;;5076491;28;20174;-72
2022/07/02 01:45:22;;;;;;;7.27;2.10;;;-28.80;99.90;;;;;;5077581;28;20574;-73
2022/07/02 01:47:48;;;;;;;2.77;1.80;;;-29.40;99.90;;;;;;5077512;28;20195;-71
2022/07/02 01:50:14;;;;;;;7.87;1.97;;;-29.50;99.90;;;;;;5077316;28;20269;-73
2022/07/02 01:52:40;;;;;;;3.50;2.00;;;-27.50;99.90;;;;;;5077427;28;20183;-74
2022/07/02 01:55:06;;;;;;;2.80;1.50;;;-33.10;99.90;;;;;;5077422;28;20570;-74
2022/07/02 01:57:36;;;;;;;2.47;1.90;;;-28.30;99.90;;;;;;5076209;28;20578;-73
2022/07/02 02:00:08;;;;;;;3.30;1.63;;;-24.60;99.90;;;;;;5077294;28;20179;-74
2022/07/02 02:02:33;;;;;;;4.43;2.20;;;-27.00;99.90;;;;;;5076924;28;20217;-74
2022/07/02 02:04:59;;;;;;;3.90;2.27;;;-31.40;99.90;;;;;;5076772;28;20175;-73
2022/07/02 02:07:26;;;;;;;9.57;3.13;;;-31.80;99.90;;;;;;5077363;28;20186;-73
2022/07/02 02:09:53;;;;;;;5.57;1.80;;;-31.50;99.90;;;;;;5077093;28;20182;-73
2022/07/02 02:12:19;;;;;;;2.37;1.97;;;-31.90;99.90;;;;;;5077024;28;20164;-74
2022/07/02 02:14:44;;;;;;;1.80;1.70;;;-30.10;99.90;;;;;;5075971;28;20498;-72
2022/07/02 02:17:10;;;;;;;5.57;2.00;;;-31.80;99.90;;;;;;5076988;28;20598;-70
2022/07/02 02:19:36;;;;;;;3.23;1.87;;;-26.40;99.90;;;;;;5076499;28;20542;-68
2022/07/02 02:22:02;;;;;;;6.83;1.77;;;-35.50;99.90;;;;;;5076666;28;20167;-72
2022/07/02 02:24:27;;;;;;;3.00;1.50;;;-37.00;99.90;;;;;;5076796;28;20206;-73
2022/07/02 02:26:53;;;;;;;3.67;1.77;;;-40.00;99.90;;;;;;5076750;28;20176;-73
2022/07/02 02:29:19;;;;;;;6.33;2.43;;;-40.00;99.90;;;;;;5076742;28;20167;-73
2022/07/02 02:31:45;;;;;;;1.73;1.63;;;-40.00;99.90;;;;;;5076476;28;20502;-74
2022/07/02 02:34:11;;;;;;;4.33;1.60;;;-40.00;99.90;;;;;;5076423;28;20175;-73
2022/07/02 02:36:36;;;;;;;9.10;2.27;;;-40.00;99.90;;;;;;5076338;28;20579;-72
2022/07/02 02:39:03;;;;;;;2.70;1.83;;;-35.30;99.90;;;;;;5076429;28;20184;-73
2022/07/02 02:41:28;;;;;;;2.63;2.37;;;-40.00;99.90;;;;;;5076554;28;20178;-73
2022/07/02 02:43:54;;;;;;;12.83;2.80;;;-40.00;99.90;;;;;;5076208;28;20212;-73
2022/07/02 02:46:20;;;;;;;8.00;2.53;;;-40.00;99.90;;;;;;5076504;28;20191;-73
2022/07/02 02:48:45;;;;;;;3.73;2.13;;;-40.00;99.90;;;;;;5075950;28;20558;-72
2022/07/02 02:51:15;;;;;;;4.97;1.87;;;-40.00;99.90;;;;;;5076393;28;20210;-72
2022/07/02 02:53:42;;;;;;;1.37;1.27;;;-37.60;99.90;;;;;;5076249;28;20635;-74
2022/07/02 02:56:09;;;;;;;2.60;2.20;;;-40.00;99.90;;;;;;5076165;28;20606;-73
2022/07/02 02:58:35;;;;;;;3.63;2.30;;;-38.40;99.90;;;;;;5076005;28;20213;-73
2022/07/02 03:01:01;;;;;;;6.63;2.63;;;-40.00;99.90;;;;;;5076156;28;20168;-73
2022/07/02 03:03:27;;;;;;;3.77;2.67;;;-40.00;99.90;;;;;;5075851;28;20166;-73
2022/07/02 03:05:53;;;;;;;3.33;1.97;;;-40.00;99.90;;;;;;5074811;28;20171;-73
2022/07/02 03:08:19;;;;;;;2.00;1.80;;;-40.00;99.90;;;;;;5075514;28;20182;-73
2022/07/02 03:10:45;;;;;;;2.37;2.17;;;-40.00;99.90;;;;;;5076068;28;20174;-71
2022/07/02 03:13:11;;;;;;;4.53;2.07;;;-40.00;99.90;;;;;;5076152;28;20182;-71
2022/07/02 03:15:37;;;;;;;4.17;2.20;;;-40.00;99.90;;;;;;5075876;28;20662;-72
2022/07/02 03:18:03;;;;;;;5.43;2.10;;;-40.00;99.90;;;;;;5075690;28;20194;-73
2022/07/02 03:20:31;;;;;;;3.40;2.80;;;-40.00;99.90;;;;;;5074830;28;20258;-70
2022/07/02 03:22:57;;;;;;;2.70;2.00;;;-40.00;99.90;;;;;;5075902;28;20192;-73
2022/07/02 03:25:23;;;;;;;3.40;1.97;;;-40.00;99.90;;;;;;5075985;28;20173;-72
2022/07/02 03:27:49;;;;;;;3.50;3.07;;;-40.00;99.90;;;;;;5074847;28;20179;-70
2022/07/02 03:30:15;;;;;;;3.60;2.33;;;-40.00;99.90;;;;;;5075829;28;20237;-71
2022/07/02 03:32:41;;;;;;;5.97;2.13;;;-40.00;99.90;;;;;;5074515;28;20185;-73
2022/07/02 03:35:07;;;;;;;3.63;1.70;;;-40.00;99.90;;;;;;5075774;28;20174;-73
2022/07/02 03:37:33;;;;;;;5.03;2.40;;;-40.00;99.90;;;;;;5075748;28;20675;-74
2022/07/02 03:39:59;;;;;;;2.57;1.93;;;-40.00;99.90;;;;;;5075753;28;20167;-73
2022/07/02 03:42:25;;;;;;;1.97;1.83;;;-40.00;99.90;;;;;;5075823;28;20254;-73
2022/07/02 03:44:50;;;;;;;4.00;3.07;;;-40.00;99.90;;;;;;5075558;28;20224;-73
2022/07/02 03:47:16;;;;;;;5.50;1.83;;;-40.00;99.90;;;;;;5074512;28;20179;-74
2022/07/02 03:49:42;;;;;;;5.67;2.20;;;-40.00;99.90;;;;;;5075489;28;20195;-74
2022/07/02 03:52:08;;;;;;;5.23;2.30;;;-40.00;99.90;;;;;;5075760;28;20176;-73
2022/07/02 03:54:34;;;;;;;3.80;2.77;;;-40.00;99.90;;;;;;5075676;28;20213;-70
2022/07/02 03:57:00;;;;;;;3.97;2.03;;;-40.00;99.90;;;;;;5075668;28;20198;-72
2022/07/02 03:59:26;;;;;;;8.63;2.63;;;-40.00;99.90;;;;;;5075593;28;20175;-74
2022/07/02 04:01:54;;;;;;;3.13;2.27;;;-40.00;99.90;;;;;;5075229;28;20164;-71
2022/07/02 04:04:20;;;;;;;4.37;2.13;;;-40.00;99.90;;;;;;5075606;28;20167;-71
2022/07/02 04:06:46;;;;;;;5.00;2.20;;;-40.00;99.90;;;;;;5075480;28;20545;-73
2022/07/02 04:09:12;;;;;;;3.20;2.30;;;-40.00;99.90;;;;;;5075359;28;20296;-72
2022/07/02 04:11:38;;;;;;;4.20;2.27;;;-40.00;99.90;;;;;;5074369;28;20278;-73
2022/07/02 04:14:04;;;;;;;2.23;2.00;;;-40.00;99.90;;;;;;5075436;28;20583;-68
2022/07/02 04:16:30;;;;;;;4.43;2.17;;;-40.00;99.90;;;;;;5075108;28;20603;-74
2022/07/02 04:18:56;;;;;;;3.67;2.40;;;-40.00;99.90;;;;;;5075552;28;20172;-73
2022/07/02 04:21:22;;;;;;;6.13;2.97;;;-40.00;99.90;;;;;;5078136;28;20178;-73
2022/07/02 04:23:48;;;;;;;4.17;2.20;;;-40.00;99.90;;;;;;5079148;28;20190;-72
2022/07/02 04:26:13;;;;;;;2.17;1.97;;;-40.00;99.90;;;;;;5078960;28;20163;-74
2022/07/02 04:28:39;;;;;;;10.17;3.87;;;-40.00;99.90;;;;;;5079117;28;20183;-67
2022/07/02 04:31:05;;;;;;;4.87;2.00;;;-40.00;99.90;;;;;;5078852;28;20206;-73
2022/07/02 04:33:31;;;;;;;2.90;2.00;;;-40.00;99.90;;;;;;5078944;28;20262;-72
2022/07/02 04:35:56;;;;;;;2.00;1.90;;;-40.00;99.90;;;;;;5078516;28;20176;-72
2022/07/02 04:38:22;;;;;;;3.83;2.50;;;-40.00;99.90;;;;;;5078834;28;20255;-73
2022/07/02 04:40:48;;;;;;;5.23;2.80;;;-40.00;99.90;;;;;;5077660;28;20171;-71
2022/07/02 04:43:14;;;;;;;2.60;2.37;;;-40.00;99.90;;;;;;5078601;28;20177;-73
2022/07/02 04:45:40;;;;;;;7.50;2.90;;;-40.00;99.90;;;;;;5078643;28;20172;-72
2022/07/02 04:48:07;;;;;;;2.67;2.47;;;-40.00;99.90;;;;;;5078602;28;20195;-69
2022/07/02 04:50:33;;;;;;;4.07;1.67;;;-40.00;99.90;;;;;;5078706;28;20204;-68
2022/07/02 04:52:59;;;;;;;2.13;2.00;;;-40.00;99.90;;;;;;5078744;28;20182;-72
2022/07/02 04:55:25;;;;;;;2.37;2.13;;;-40.00;99.90;;;;;;5078610;28;20179;-74
2022/07/02 04:57:51;;;;;;;5.83;2.80;;;-40.00;99.90;;;;;;5078009;28;20620;-73
2022/07/02 05:00:17;;;;;;;4.67;2.57;;;-40.00;99.90;;;;;;5078488;28;20168;-73
2022/07/02 05:02:43;;;;;;;3.37;2.10;;;-40.00;99.90;;;;;;5078302;28;20202;-74
2022/07/02 05:05:09;;;;;;;3.43;1.60;;;-40.00;99.90;;;;;;5078467;28;20195;-73
2022/07/02 05:07:34;;;;;;;3.67;1.70;;;-40.00;99.90;;;;;;5078348;28;20270;-74
2022/07/02 05:10:00;;;;;;;2.23;1.60;;;-40.00;99.90;;;;;;5077157;28;20232;-73
2022/07/02 05:12:26;;;;;;;9.60;2.67;;;-40.00;99.90;;;;;;5078029;28;20201;-69
2022/07/02 05:14:52;;;;;;;2.90;2.70;;;-40.00;99.90;;;;;;5078323;28;20182;-73
2022/07/02 05:17:18;;;;;;;2.53;2.33;;;-40.00;99.90;;;;;;5077859;28;20231;-71
2022/07/02 05:19:44;;;;;;;5.30;1.73;;;-40.00;99.90;;;;;;5078167;28;20163;-74
2022/07/02 05:22:10;;;;;;;3.93;2.30;;;-40.00;99.90;;;;;;5078189;28;20682;-73
2022/07/02 05:24:36;;;;;;;2.57;1.93;;;-40.00;99.90;;;;;;5078131;28;20171;-74
2022/07/02 05:27:02;;;;;;;7.77;2.00;;;-40.00;99.90;;;;;;5077609;28;20186;-69
2022/07/02 05:29:28;;;;;;;2.43;2.07;;;-40.00;99.90;;;;;;5078100;28;20172;-75
2022/07/02 05:31:54;;;;;;;3.20;1.80;;;-40.00;99.90;;;;;;5077383;28;20220;-75
2022/07/02 05:34:19;;;;;;;7.83;2.73;;;-40.00;99.90;;;;;;5077951;28;20171;-68
2022/07/02 05:36:45;;;;;;;5.23;2.90;;;-40.00;99.90;;;;;;5077556;28;20195;-73
2022/07/02 05:39:13;;;;;;;3.70;1.73;;;-40.00;99.90;;;;;;5077884;28;20179;-73
2022/07/02 05:41:38;;;;;;;2.63;2.13;;;-40.00;99.90;;;;;;5077197;28;20451;-69
2022/07/02 05:44:04;;;;;;;5.20;2.13;;;-40.00;99.90;;;;;;5076602;28;20182;-74
2022/07/02 05:46:30;;;;;;;3.67;2.03;;;-40.00;99.90;;;;;;5077591;28;20681;-74
2022/07/02 05:48:56;;;;;;;4.30;2.57;;;-40.00;99.90;;;;;;5077508;28;20195;-73
2022/07/02 05:51:22;;;;;;;5.70;1.57;;;-40.00;99.90;;;;;;5077414;28;20457;-74
2022/07/02 05:53:47;;;;;;;7.67;2.33;;;-40.00;99.90;;;;;;5077445;28;20171;-73
2022/07/02 05:56:13;;;;;;;2.97;1.63;;;-40.00;99.90;;;;;;5076218;28;20176;-69
2022/07/02 05:58:39;;;;;;;5.60;2.33;;;-40.00;99.90;;;;;;5077262;28;20199;-74
2022/07/02 06:01:05;;;;;;;2.00;1.60;;;-40.00;99.90;;;;;;5077255;28;20167;-74
2022/07/02 06:03:31;;;;;;;10.53;2.47;;;-40.00;99.90;;;;;;5077156;28;20182;-74
2022/07/02 06:08:41;;;;;;;3.23;2.10;;;-40.00;99.90;;;;;;5077116;28;20224;-74
2022/07/02 06:11:07;;;;;;;3.20;1.70;;;-40.00;99.90;;;;;;5076864;28;20524;-73
2022/07/02 06:13:33;;;;;;;7.60;1.80;;;-40.00;99.90;;;;;;5076999;28;20180;-72
2022/07/02 06:15:59;;;;;;;1.53;1.43;;;-40.00;99.90;;;;;;5077120;28;20229;-74
2022/07/02 06:18:24;;;;;;;3.57;1.73;;;-40.00;99.90;;;;;;5075707;28;20207;-73
2022/07/02 06:20:51;;;;;;;1.83;1.73;;;-40.00;99.90;;;;;;5075827;28;20183;-73
2022/07/02 06:23:21;;;;;;;2.43;1.40;;;-40.00;99.90;;;;;;5076723;28;20172;-74
2022/07/02 06:25:48;;;;;;;1.57;1.47;;;-40.00;99.90;;;;;;5076648;28;20190;-76
2022/07/02 06:28:14;;;;;;;7.80;2.20;;;-40.00;99.90;;;;;;5076570;28;20178;-72
2022/07/02 06:30:40;;;;;;;3.70;1.97;;;-40.00;99.90;;;;;;5076618;28;20171;-74
2022/07/02 06:33:06;;;;;;;4.30;2.23;;;-40.00;99.90;;;;;;5076546;28;20476;-74
2022/07/02 06:35:32;;;;;;;2.30;1.87;;;-40.00;99.90;;;;;;5076643;28;20172;-72
2022/07/02 06:37:57;;;;;;;2.03;1.80;;;-40.00;99.90;;;;;;5076166;28;20226;-73
2022/07/02 06:40:23;;;;;;;4.63;2.47;;;-40.00;99.90;;;;;;5076174;28;20606;-74
2022/07/02 06:42:49;;;;;;;10.23;5.77;;;-40.00;99.90;;;;;;5074649;28;20175;-71
2022/07/02 06:45:15;;;;;;;6.37;2.10;;;-40.00;99.90;;;;;;5076342;28;20194;-77
2022/07/02 06:47:42;;;;;;;5.63;1.67;;;-40.00;99.90;;;;;;5076416;28;20593;-74
2022/07/02 06:50:09;;;;;;;2.10;1.50;;;-40.00;99.90;;;;;;5075146;28;20201;-75
2022/07/02 06:52:35;;;;;;;4.83;1.77;;;-40.00;99.90;;;;;;5076254;28;20179;-74
2022/07/02 06:55:02;;;;;;;3.60;2.30;;;-40.00;99.90;;;;;;5075979;28;20189;-75
2022/07/02 06:57:27;;;;;;;1.90;1.60;;;-40.00;99.90;;;;;;5076157;28;20199;-78
2022/07/02 06:59:53;;;;;;;6.10;2.20;;;-40.00;99.90;;;;;;5076140;28;20173;-76
2022/07/02 07:02:20;;;;;;;3.60;1.40;;;-40.00;99.90;;;;;;5075953;28;20171;-76
2022/07/02 07:04:45;;;;;;;5.60;2.57;;;-40.00;99.90;;;;;;5076018;28;20168;-76
2022/07/02 07:07:11;;;;;;;4.67;2.13;;;-40.00;99.90;;;;;;5076336;28;20185;-74
2022/07/02 07:09:38;;;;;;;3.50;2.00;;;-40.00;99.60;;;;;;5075741;28;20178;-78
2022/07/02 07:12:05;;;;;;;3.07;1.73;;;-40.00;99.00;;;;;;5076071;28;20643;-75
2022/07/02 07:14:31;;;;;;;6.47;1.83;;;-40.00;98.50;;;;;;5073481;28;20187;-75
2022/07/02 07:16:58;;;;;;;9.03;2.43;;;-40.00;98.80;;;;;;5073609;28;20202;-76
2022/07/02 07:19:24;;;;;;;5.57;2.10;;;-40.00;98.90;;;;;;5073638;28;20608;-75
2022/07/02 07:21:50;;;;;;;3.10;1.67;;;-40.00;97.80;;;;;;5075061;28;20250;-68
2022/07/02 07:24:16;;;;;;;3.37;2.30;;;-40.00;98.10;;;;;;5073427;28;20174;-70
2022/07/02 07:26:43;;;;;;;4.57;2.17;;;-40.00;97.40;;;;;;5074403;28;20179;-69
2022/07/02 07:29:09;;;;;;;5.47;3.77;;;-40.00;97.10;;;;;;5074171;28;20244;-71
2022/07/02 07:31:35;;;;;;;2.67;1.70;;;-40.00;96.80;;;;;;5073598;28;20175;-69
2022/07/02 07:34:03;;;;;;;2.90;2.43;;;-40.00;95.60;;;;;;5075139;28;20193;-70
2022/07/02 07:36:28;;;;;;;1.97;1.53;;;-40.00;96.30;;;;;;5074722;28;20218;-70
2022/07/02 07:38:54;;;;;;;3.10;1.20;;;-40.00;96.00;;;;;;5074539;28;20527;-73
2022/07/02 07:41:21;;;;;;;2.80;1.87;;;-40.00;94.80;;;;;;5075543;28;20563;-71
2022/07/02 07:43:48;;;;;;;3.83;2.03;;;-40.00;95.30;;;;;;5075172;28;20167;-70
2022/07/02 07:46:14;;;;;;;3.67;1.53;;;-40.00;95.50;;;;;;5075220;28;20213;-69
2022/07/02 07:48:40;;;;;;;3.47;1.87;;;-40.00;95.10;;;;;;5075414;28;20198;-71
2022/07/02 07:51:05;;;;;;;8.33;2.00;;;-40.00;95.40;;;;;;5075341;28;20172;-70
2022/07/02 07:53:32;;;;;;;3.23;1.67;;;-40.00;94.80;;;;;;5076194;28;20176;-69
2022/07/02 07:55:58;;;;;;;2.63;1.33;;;-40.00;95.10;;;;;;5079353;28;20171;-72
2022/07/02 07:58:24;;;;;;;2.10;1.37;;;-40.00;94.30;;;;;;5079188;28;20199;-73
2022/07/02 08:00:50;;;;;;;3.50;1.57;;;-40.00;94.20;;;;;;5078347;28;20175;-70
2022/07/02 08:03:17;;;;;;;3.73;1.93;;;-40.00;94.20;;;;;;5079521;28;20558;-70
2022/07/02 08:05:46;;;;;;;2.37;1.40;;;-40.00;94.00;;;;;;5078222;28;20558;-73
2022/07/02 08:08:12;;;;;;;2.60;1.90;;;-40.00;93.50;;;;;;5079072;28;20268;-73
2022/07/02 08:10:38;;;;;;;1.70;1.40;;;-40.00;93.60;;;;;;5079211;28;20229;-73
2022/07/02 08:13:04;;;;;;;5.63;1.50;;;-40.00;94.00;;;;;;5079349;28;20577;-73
2022/07/02 08:15:30;;;;;;;6.30;1.80;;;-40.00;94.20;;;;;;5079099;28;20258;-70
2022/07/02 08:17:55;;;;;;;3.77;1.37;;;-40.00;93.40;;;;;;5079083;28;20241;-73
2022/07/02 08:20:21;;;;;;;3.07;1.70;;;-40.00;93.90;;;;;;5078986;28;20605;-72
2022/07/02 08:22:49;;;;;;;4.90;2.10;;;-40.00;93.10;;;;;;5078820;28;20165;-70
2022/07/02 08:25:15;;;;;;;3.77;1.80;;;-40.00;93.40;;;;;;5079073;28;20203;-70
2022/07/02 08:27:45;;;;;;;3.93;2.07;;;-40.00;92.20;;;;;;5079126;28;20229;-70
2022/07/02 08:30:11;;;;;;;7.00;3.10;;;-40.00;91.80;;;;;;5078894;28;20613;-70
2022/07/02 08:32:38;;;;;;;8.37;2.97;;;-40.00;92.10;;;;;;5078860;28;20171;-69
2022/07/02 08:35:05;;;;;;;11.00;4.47;;;-40.00;92.20;;;;;;5078722;28;20171;-70
2022/07/02 08:37:31;;;;;;;4.17;2.83;;;-40.00;91.60;;;;;;5078227;28;20211;-70
2022/07/02 08:39:57;;;;;;;4.40;2.43;;;-40.00;90.20;;;;;;5078541;28;20163;-73
2022/07/02 08:42:28;;;;;;;10.77;2.93;;;-40.00;90.50;;;;;;5078421;28;20171;-71
2022/07/02 08:44:57;;;;;;;9.30;3.20;;;-40.00;90.60;;;;;;5078591;28;20232;-73
2022/07/02 08:47:24;;;;;;;5.00;3.07;;;-40.00;88.80;;;;;;5078206;28;20525;-71
2022/07/02 08:50:00;;;;;;;8.43;4.60;;;-40.00;88.30;;;;;;5071532;28;20280;-74
2022/07/02 08:52:27;;;;;;;7.70;3.10;;;-40.00;89.10;;;;;;5071790;28;20190;-76
2022/07/02 08:54:54;;;;;;;6.60;3.93;;;-40.00;88.40;;;;;;5069527;28;20181;-70
2022/07/02 08:57:21;;;;;;;4.97;2.50;;;-40.00;89.20;;;;;;5076690;28;20600;-72
2022/07/02 08:59:48;;;;;;;6.30;2.80;;;-40.00;87.00;;;;;;5077710;28;20179;-69
2022/07/02 09:02:15;;;;;;;4.73;2.53;;;-40.00;82.80;;;;;;5076954;28;20171;-70
2022/07/02 09:04:48;;;;;;;4.60;2.30;;;-40.00;78.80;;;;;;5073625;28;20519;-69
2022/07/02 09:07:15;;;;;;;4.00;2.30;;;-40.00;79.10;;;;;;5067447;28;20186;-72
2022/07/02 09:09:42;;;;;;;3.67;2.60;;;-40.00;80.10;;;;;;5075593;28;20258;-69
2022/07/02 09:12:10;;;;;;;3.77;1.57;;;-40.00;81.20;;;;;;5077214;28;20172;-73
2022/07/02 09:14:36;;;;;;;1.43;1.33;;;-40.00;82.60;;;;;;5076836;28;20289;-75
2022/07/02 09:17:05;;;;;;;1.60;0.93;;;-40.00;82.60;;;;;;5075874;28;20288;-71
2022/07/02 09:19:31;;;;;;;2.70;1.60;;;-40.00;75.60;;;;;;5092726;28;20187;-71
2022/07/02 09:21:56;;;;;;;2.93;1.43;;;-40.00;78.00;;;;;;5076192;28;20171;-74
2022/07/02 09:24:37;;;;;;;4.43;1.57;;;-40.00;74.30;;;;;;5076808;28;20535;-72
2022/07/02 09:27:12;;;;;;;3.87;1.50;;;-40.00;71.90;;;;;;5076493;28;20178;-69
2022/07/02 09:29:49;;;;;;;1.27;1.17;;;-40.00;73.60;;;;;;5075519;28;20248;-71
2022/07/02 09:32:16;;;;;;;2.13;0.93;;;-40.00;71.70;;;;;;5076847;28;20202;-74
2022/07/02 09:34:47;;;;;;;0.97;0.97;;;-40.00;66.10;;;;;;5074513;28;20620;-76
2022/07/02 09:37:18;;;;;;;1.70;0.83;;;-40.00;68.50;;;;;;5076564;28;20218;-75
2022/07/02 09:39:45;;;;;;;3.33;1.77;;;-40.00;70.50;;;;;;5076260;28;20175;-76
2022/07/02 09:42:12;;;;;;;3.87;1.40;;;-40.00;72.40;;;;;;5076547;28;20179;-77
2022/07/02 09:44:47;;;;;;;1.00;0.90;;;-40.00;69.30;;;;;;5073560;28;20174;-72
2022/07/02 09:47:14;;;;;;;3.30;1.00;;;-40.00;67.90;;;;;;5073154;28;20174;-78
2022/07/02 09:49:50;;;;;;;1.17;0.80;;;-40.00;66.90;;;;;;5072918;28;20203;-77
2022/07/02 09:52:17;;;;;;;2.83;1.60;;;-40.00;68.50;;;;;;5076137;28;20179;-73
2022/07/02 09:54:45;;;;;;;1.87;0.80;;;-40.00;67.70;;;;;;5076158;28;20179;-70
2022/07/02 09:57:12;;;;;;;2.50;0.90;;;-40.00;66.40;;;;;;5092074;28;20214;-70
2022/07/02 09:59:40;;;;;;;0.60;0.60;;;-40.00;61.50;;;;;;5075862;28;20236;-70
2022/07/02 10:02:20;;;;;;;4.53;1.27;;;-40.00;62.30;;;;;;5076505;28;20198;-73
2022/07/02 10:04:46;;;;;;;0.73;0.73;;;-31.50;69.10;;;;;;5091437;28;20568;-69
2022/07/02 10:07:11;;;;;;;2.07;0.90;;;-40.00;61.30;;;;;;5076180;28;20266;-72
2022/07/02 10:09:42;;;;;;;0.77;0.70;;;-31.30;67.20;;;;;;5076155;28;20180;-70
2022/07/02 10:12:09;;;;;;;4.30;0.87;;;-40.00;62.30;;;;;;5075541;28;20598;-75
2022/07/02 10:14:37;;;;;;;0.77;0.70;;;-36.80;64.30;;;;;;5075699;28;20167;-70
2022/07/02 10:17:03;;;;;;;1.13;0.97;;;-28.60;70.10;;;;;;5074203;28;20190;-71
2022/07/02 10:19:33;;;;;;;3.30;0.60;;;-38.70;62.40;;;;;;5070178;28;20175;-69
2022/07/02 10:22:01;;;;;;;1.07;0.97;;;-29.40;68.50;;;;;;5075956;28;20178;-67
2022/07/02 10:24:27;;;;;;;2.63;0.90;;;-28.20;68.90;;;;;;5074991;28;20254;-68
2022/07/02 10:26:55;;;;;;;1.50;0.67;;;-25.10;72.40;;;;;;5075030;28;20228;-69
2022/07/02 10:29:21;;;;;;;0.87;0.70;;;-31.40;68.20;;;;;;5074380;28;20178;-69
2022/07/02 10:32:16;;;;;;;1.23;0.60;;;-29.60;68.30;;;;;;5075038;28;20175;-69
2022/07/02 10:35:07;;;;;;;2.93;1.07;;;-23.20;72.60;;;;;;5072533;28;20243;-70
2022/07/02 10:37:35;;;;;;;1.00;0.90;;;-22.10;74.00;;;;;;5075304;28;20558;-70
2022/07/02 10:40:02;;;;;;;1.70;0.67;;;-26.90;68.60;;;;;;5074970;28;20176;-70
2022/07/02 10:42:44;;;;;;;0.60;0.60;;;-37.80;59.80;;;;;;5075364;28;20167;-69
2022/07/02 10:45:15;;;;;;;0.80;0.60;;;-34.80;65.90;;;;;;5069107;28;20201;-69
2022/07/02 10:48:03;;;;;;;1.63;1.00;;;-40.00;59.40;;;;;;5074627;28;20179;-71
2022/07/02 10:50:35;;;;;;;1.33;0.93;;;-32.70;59.20;;;;;;5068650;28;20202;-69
2022/07/02 10:53:17;;;;;;;3.87;1.43;;;-33.40;58.00;;;;;;5073657;28;20179;-73
2022/07/02 10:56:03;;;;;;;1.93;1.00;;;-33.60;58.60;;;;;;5075141;28;20475;-70
2022/07/02 10:58:36;;;;;;;1.67;1.00;;;-24.60;66.90;;;;;;5073326;28;20219;-69
2022/07/02 11:01:13;;;;;;;0.63;0.40;;;-24.90;66.20;;;;;;5073855;28;20187;-74
2022/07/02 11:03:50;;;;;;;1.10;1.00;;;-22.40;67.60;;;;;;5074479;28;20646;-71
2022/07/02 11:06:24;;;;;;;0.53;0.53;;;-23.10;69.20;;;;;;5075124;28;20175;-70
2022/07/02 11:08:51;;;;;;;3.60;1.10;;;-31.90;59.30;;;;;;5074377;28;20175;-70
2022/07/02 11:11:29;;;;;;;0.63;0.63;;;-34.40;59.20;;;;;;5075157;28;20232;-68
2022/07/02 11:14:03;;;;;;;0.93;0.87;;;-35.10;57.50;;;;;;5074505;28;20207;-76
2022/07/02 11:16:43;;;;;;;0.97;0.60;;;-33.40;60.30;;;;;;5073924;28;20187;-72
2022/07/02 11:19:16;;;;;;;4.30;0.60;;;-24.60;64.20;;;;;;5074404;28;20179;-70
2022/07/02 11:21:43;;;;;;;0.83;0.83;;;-29.90;57.90;;;;;;5075475;28;20164;-69
2022/07/02 11:24:10;;;;;;;0.80;0.50;;;-23.30;62.10;;;;;;5074600;28;20175;-72
2022/07/02 11:26:40;;;;;;;1.10;0.50;;;-17.60;64.80;;;;;;5075913;28;20250;-77
2022/07/02 11:29:06;;;;;;;2.27;0.70;;;-25.00;60.80;;;;;;5074250;28;20175;-65
2022/07/02 11:31:36;;;;;;;2.93;1.37;;;-23.50;64.20;;;;;;5075259;28;20579;-70
2022/07/02 11:34:03;;;;;;;3.50;1.40;;;-15.50;70.70;;;;;;5075454;28;20171;-69
2022/07/02 11:36:29;;;;;;;0.60;0.60;;;-10.70;73.10;;;;;;5075051;28;20731;-69
2022/07/02 11:38:56;;;;;;;2.30;0.80;;;-14.90;72.10;;;;;;5075406;28;20219;-69
2022/07/02 11:41:28;;;;;;;2.33;0.60;;;-21.50;66.40;;;;;;5073592;28;20175;-71
2022/07/02 11:43:57;;;;;;;3.10;1.23;;;-25.50;64.60;;;;;;5075090;28;20233;-72
2022/07/02 11:46:28;;;;;;;0.70;0.70;;;-22.00;61.90;;;;;;5075487;28;20170;-70
2022/07/02 11:48:55;;;;;;;2.07;0.70;;;-24.80;60.10;;;;;;5074811;28;20195;-67
2022/07/02 11:51:21;;;;;;;2.73;0.53;;;-16.20;63.20;;;;;;5075566;28;20187;-71
2022/07/02 11:53:57;;;;;;;2.30;1.60;;;-7.70;69.90;;;;;;5068720;28;20187;-71
2022/07/02 11:56:23;;;;;;;2.17;1.70;;;-24.10;60.40;;;;;;5071635;28;20262;-77
2022/07/02 11:58:49;;;;;;;1.07;0.97;;;-24.80;57.00;;;;;;5074028;28;20281;-70
2022/07/02 12:01:34;;;;;;;1.40;0.77;;;-30.00;53.20;;;;;;5071703;28;20164;-70
2022/07/02 12:04:05;;;;;;;0.83;0.40;;;-22.90;54.50;;;;;;5074194;28;20167;-74
2022/07/02 12:06:35;;;;;;;0.70;0.70;;;-25.80;54.10;;;;;;5074142;28;20478;-69
2022/07/02 12:09:06;;;;;;;1.90;0.83;;;-19.90;58.90;;;;;;5073704;28;20183;-69
2022/07/02 12:11:36;;;;;;;3.47;0.80;;;-13.30;60.40;;;;;;5074304;28;20206;-72
2022/07/02 12:14:04;;;;;;;1.13;0.90;;;-16.00;60.60;;;;;;5070730;28;20179;-73
2022/07/02 12:16:31;;;;;;;0.47;0.47;;;-21.00;58.30;;;;;;5074079;28;20171;-71
2022/07/02 12:18:58;;;;;;;2.67;1.03;;;-24.60;55.20;;;;;;5074386;28;20207;-70
2022/07/02 12:21:44;;;;;;;1.43;0.60;;;26.00;83.00;;;;;;5073536;28;20278;-70
2022/07/02 12:24:27;;;;;;;3.80;1.97;;;-20.50;57.50;;;;;;5068584;28;20548;-71
2022/07/02 12:26:54;;;;;;;1.47;0.70;;;-10.90;63.80;;;;;;5073104;28;20225;-71
2022/07/02 12:29:53;;;;;;;3.40;0.77;;;-11.90;64.00;;;;;;5073762;28;20511;-70
2022/07/02 12:32:23;;;;;;;4.20;0.80;;;-9.30;65.30;;;;;;5089591;28;20186;-70
2022/07/02 12:34:54;;;;;;;0.70;0.70;;;-5.20;68.50;;;;;;5072482;28;20202;-67
2022/07/02 12:37:27;;;;;;;1.13;0.70;;;-12.10;64.30;;;;;;5073221;28;20306;-70
2022/07/02 12:40:22;;;;;;;2.87;0.60;;;-11.00;67.90;;;;;;5074944;28;20175;-71
2022/07/02 12:42:54;;;;;;;0.80;0.50;;;-11.80;63.90;;;;;;5077203;28;20206;-70
2022/07/02 12:45:31;;;;;;;3.03;0.70;;;-11.50;63.80;;;;;;5078587;28;20179;-74